sensor_id;sensor_type;location;lat;lon;timestamp;temperature;humidity
18733;DHT22;9495;51.210;2.934;2023-04-03T00:01:18;6.50;99.90
18733;DHT22;9495;51.210;2.934;2023-04-03T00:03:48;6.40;99.90
18733;DHT22;9495;51.210;2.934;2023-04-03T00:06:19;6.30;99.90
18733;DHT22;9495;51.210;2.934;2023-04-03T00:08:48;6.20;99.90
18733;DHT22;9495;51.210;2.934;2023-04-03T00:11:16;6.30;99.90
18733;DHT22;9495;51.210;2.934;2023-04-03T00:13:45;6.30;99.90
18733;DHT22;9495;51.210;2.934;2023-04-03T00:16:13;6.40;99.90
18733;DHT22;9495;51.210;2.934;2023-04-03T00:18:42;6.30;99.90
18733;DHT22;9495;51.210;2.934;2023-04-03T00:21:13;6.30;99.90
18733;DHT22;9495;51.210;2.934;2023-04-03T00:23:42;6.20;99.90
18733;DHT22;9495;51.210;2.934;2023-04-03T00:26:11;6.20;99.90
18733;DHT22;9495;51.210;2.934;2023-04-03T00:28:39;6.10;99.90
18733;DHT22;9495;51.210;2.934;2023-04-03T00:31:08;6.00;99.90
18733;DHT22;9495;51.210;2.934;2023-04-03T00:33:37;5.80;99.90
18733;DHT22;9495;51.210;2.934;2023-04-03T00:36:06;5.80;99.90
18733;DHT22;9495;51.210;2.934;2023-04-03T00:38:37;5.80;99.90
18733;DHT22;9495;51.210;2.934;2023-04-03T00:41:06;5.70;99.90
18733;DHT22;9495;51.210;2.934;2023-04-03T00:43:34;5.70;99.90
18733;DHT22;9495;51.210;2.934;2023-04-03T00:46:03;5.70;99.90
18733;DHT22;9495;51.210;2.934;2023-04-03T00:48:34;5.70;99.90
18733;DHT22;9495;51.210;2.934;2023-04-03T00:51:05;5.50;99.90
18733;DHT22;9495;51.210;2.934;2023-04-03T00:53:38;5.50;99.90
18733;DHT22;9495;51.210;2.934;2023-04-03T00:56:10;5.50;99.90
18733;DHT22;9495;51.210;2.934;2023-04-03T00:58:44;5.50;99.90
18733;DHT22;9495;51.210;2.934;2023-04-03T01:01:16;5.50;99.90
18733;DHT22;9495;51.210;2.934;2023-04-03T01:03:46;5.50;99.90
18733;DHT22;9495;51.210;2.934;2023-04-03T01:06:17;5.50;99.90
18733;DHT22;9495;51.210;2.934;2023-04-03T01:08:50;5.50;99.90
18733;DHT22;9495;51.210;2.934;2023-04-03T01:11:19;5.50;99.90
18733;DHT22;9495;51.210;2.934;2023-04-03T01:13:48;5.40;99.90
18733;DHT22;9495;51.210;2.934;2023-04-03T01:16:17;5.30;99.90
18733;DHT22;9495;51.210;2.934;2023-04-03T01:18:46;5.30;99.90
18733;DHT22;9495;51.210;2.934;2023-04-03T01:24:38;5.20;99.90
18733;DHT22;9495;51.210;2.934;2023-04-03T01:27:08;5.20;99.90
18733;DHT22;9495;51.210;2.934;2023-04-03T01:29:37;5.30;99.90
18733;DHT22;9495;51.210;2.934;2023-04-03T01:32:07;5.30;99.90
18733;DHT22;9495;51.210;2.934;2023-04-03T01:34:36;5.20;99.90
18733;DHT22;9495;51.210;2.934;2023-04-03T01:37:05;5.10;99.90
18733;DHT22;9495;51.210;2.934;2023-04-03T01:39:34;5.10;99.90
18733;DHT22;9495;51.210;2.934;2023-04-03T01:42:02;5.20;99.90
18733;DHT22;9495;51.210;2.934;2023-04-03T01:44:31;5.20;99.90
18733;DHT22;9495;51.210;2.934;2023-04-03T01:46:59;5.10;99.90
18733;DHT22;9495;51.210;2.934;2023-04-03T01:49:30;5.10;99.90
18733;DHT22;9495;51.210;2.934;2023-04-03T01:51:58;5.00;99.90
18733;DHT22;9495;51.210;2.934;2023-04-03T01:54:26;5.00;99.90
18733;DHT22;9495;51.210;2.934;2023-04-03T01:56:55;5.00;99.90
18733;DHT22;9495;51.210;2.934;2023-04-03T01:59:23;5.00;99.90
18733;DHT22;9495;51.210;2.934;2023-04-03T02:01:52;5.10;99.90
18733;DHT22;9495;51.210;2.934;2023-04-03T02:04:21;5.10;99.90
18733;DHT22;9495;51.210;2.934;2023-04-03T02:06:51;5.00;99.90
18733;DHT22;9495;51.210;2.934;2023-04-03T02:09:19;5.00;99.90
18733;DHT22;9495;51.210;2.934;2023-04-03T02:11:48;5.00;99.90
18733;DHT22;9495;51.210;2.934;2023-04-03T02:14:16;4.90;99.90
18733;DHT22;9495;51.210;2.934;2023-04-03T02:16:45;4.90;99.90
18733;DHT22;9495;51.210;2.934;2023-04-03T02:19:14;4.90;99.90
18733;DHT22;9495;51.210;2.934;2023-04-03T02:21:42;4.90;99.90
18733;DHT22;9495;51.210;2.934;2023-04-03T02:24:12;4.80;99.90
18733;DHT22;9495;51.210;2.934;2023-04-03T02:26:40;4.80;99.90
18733;DHT22;9495;51.210;2.934;2023-04-03T02:29:09;4.90;99.90
18733;DHT22;9495;51.210;2.934;2023-04-03T02:31:38;5.00;99.90
18733;DHT22;9495;51.210;2.934;2023-04-03T02:34:06;5.00;99.90
18733;DHT22;9495;51.210;2.934;2023-04-03T02:36:34;4.80;99.90
18733;DHT22;9495;51.210;2.934;2023-04-03T02:39:03;4.80;99.90
18733;DHT22;9495;51.210;2.934;2023-04-03T02:41:33;4.80;99.90
18733;DHT22;9495;51.210;2.934;2023-04-03T02:44:03;4.80;99.90
18733;DHT22;9495;51.210;2.934;2023-04-03T02:46:32;4.70;99.90
18733;DHT22;9495;51.210;2.934;2023-04-03T02:49:01;4.80;99.90
18733;DHT22;9495;51.210;2.934;2023-04-03T02:51:30;4.70;99.90
18733;DHT22;9495;51.210;2.934;2023-04-03T02:53:58;4.70;99.90
18733;DHT22;9495;51.210;2.934;2023-04-03T02:56:27;4.50;99.90
18733;DHT22;9495;51.210;2.934;2023-04-03T02:58:57;4.40;99.90
18733;DHT22;9495;51.210;2.934;2023-04-03T03:01:25;4.40;99.90
18733;DHT22;9495;51.210;2.934;2023-04-03T03:03:58;4.50;99.90
18733;DHT22;9495;51.210;2.934;2023-04-03T03:06:27;4.40;99.90
18733;DHT22;9495;51.210;2.934;2023-04-03T03:08:56;4.40;99.90
18733;DHT22;9495;51.210;2.934;2023-04-03T03:11:25;4.40;99.90
18733;DHT22;9495;51.210;2.934;2023-04-03T03:13:53;4.40;99.90
18733;DHT22;9495;51.210;2.934;2023-04-03T03:16:23;4.40;99.90
18733;DHT22;9495;51.210;2.934;2023-04-03T03:18:52;4.50;99.90
18733;DHT22;9495;51.210;2.934;2023-04-03T03:21:20;4.40;99.90
18733;DHT22;9495;51.210;2.934;2023-04-03T03:23:49;4.50;99.90
18733;DHT22;9495;51.210;2.934;2023-04-03T03:26:18;4.60;99.90
18733;DHT22;9495;51.210;2.934;2023-04-03T03:28:46;4.60;99.90
18733;DHT22;9495;51.210;2.934;2023-04-03T03:31:15;4.60;99.90
18733;DHT22;9495;51.210;2.934;2023-04-03T03:33:44;4.60;99.90
18733;DHT22;9495;51.210;2.934;2023-04-03T03:36:13;4.70;99.90
18733;DHT22;9495;51.210;2.934;2023-04-03T03:38:41;4.60;99.90
18733;DHT22;9495;51.210;2.934;2023-04-03T03:41:10;4.60;99.90
18733;DHT22;9495;51.210;2.934;2023-04-03T03:43:39;4.70;99.90
18733;DHT22;9495;51.210;2.934;2023-04-03T03:46:07;4.70;99.90
18733;DHT22;9495;51.210;2.934;2023-04-03T03:48:36;4.70;99.90
18733;DHT22;9495;51.210;2.934;2023-04-03T03:51:06;4.70;99.90
18733;DHT22;9495;51.210;2.934;2023-04-03T03:53:34;4.90;99.90
18733;DHT22;9495;51.210;2.934;2023-04-03T03:56:03;4.90;99.90
18733;DHT22;9495;51.210;2.934;2023-04-03T03:58:32;4.90;99.90
18733;DHT22;9495;51.210;2.934;2023-04-03T04:01:02;4.90;99.90
18733;DHT22;9495;51.210;2.934;2023-04-03T04:03:30;4.90;99.90
18733;DHT22;9495;51.210;2.934;2023-04-03T04:05:59;4.90;99.90
18733;DHT22;9495;51.210;2.934;2023-04-03T04:08:29;4.90;99.90
18733;DHT22;9495;51.210;2.934;2023-04-03T04:10:58;4.80;99.90
18733;DHT22;9495;51.210;2.934;2023-04-03T04:13:26;4.80;99.90
18733;DHT22;9495;51.210;2.934;2023-04-03T04:15:55;4.80;99.90
18733;DHT22;9495;51.210;2.934;2023-04-03T04:18:23;4.80;99.90
18733;DHT22;9495;51.210;2.934;2023-04-03T04:20:52;4.80;99.90
18733;DHT22;9495;51.210;2.934;2023-04-03T04:23:21;4.70;99.90
18733;DHT22;9495;51.210;2.934;2023-04-03T04:25:50;4.70;99.90
18733;DHT22;9495;51.210;2.934;2023-04-03T04:28:19;4.70;99.90
18733;DHT22;9495;51.210;2.934;2023-04-03T04:30:48;4.70;99.90
18733;DHT22;9495;51.210;2.934;2023-04-03T04:33:16;4.70;99.90
18733;DHT22;9495;51.210;2.934;2023-04-03T04:35:47;4.70;99.90
18733;DHT22;9495;51.210;2.934;2023-04-03T04:38:16;4.70;99.90
18733;DHT22;9495;51.210;2.934;2023-04-03T04:40:44;4.70;99.90
18733;DHT22;9495;51.210;2.934;2023-04-03T04:43:14;4.70;99.90
18733;DHT22;9495;51.210;2.934;2023-04-03T04:45:43;4.60;99.90
18733;DHT22;9495;51.210;2.934;2023-04-03T04:48:12;4.70;99.90
18733;DHT22;9495;51.210;2.934;2023-04-03T04:50:40;4.60;99.90
18733;DHT22;9495;51.210;2.934;2023-04-03T04:53:09;4.60;99.90
18733;DHT22;9495;51.210;2.934;2023-04-03T04:55:37;4.60;99.90
18733;DHT22;9495;51.210;2.934;2023-04-03T04:58:06;4.60;99.90
18733;DHT22;9495;51.210;2.934;2023-04-03T05:00:36;4.50;99.90
18733;DHT22;9495;51.210;2.934;2023-04-03T05:03:04;4.60;99.90
18733;DHT22;9495;51.210;2.934;2023-04-03T05:05:33;4.50;99.90
18733;DHT22;9495;51.210;2.934;2023-04-03T05:08:02;4.50;99.90
18733;DHT22;9495;51.210;2.934;2023-04-03T05:10:32;4.50;99.90
18733;DHT22;9495;51.210;2.934;2023-04-03T05:13:00;4.40;99.90
18733;DHT22;9495;51.210;2.934;2023-04-03T05:15:29;4.40;99.90
18733;DHT22;9495;51.210;2.934;2023-04-03T05:17:59;4.30;99.90
18733;DHT22;9495;51.210;2.934;2023-04-03T05:20:27;4.30;99.90
18733;DHT22;9495;51.210;2.934;2023-04-03T05:22:56;4.30;99.90
18733;DHT22;9495;51.210;2.934;2023-04-03T05:25:24;4.30;99.90
18733;DHT22;9495;51.210;2.934;2023-04-03T05:27:53;4.30;99.90
18733;DHT22;9495;51.210;2.934;2023-04-03T05:30:22;4.20;99.90
18733;DHT22;9495;51.210;2.934;2023-04-03T05:32:50;4.10;99.90
18733;DHT22;9495;51.210;2.934;2023-04-03T05:35:20;4.10;99.90
18733;DHT22;9495;51.210;2.934;2023-04-03T05:37:49;4.20;99.90
18733;DHT22;9495;51.210;2.934;2023-04-03T05:40:18;4.10;99.90
18733;DHT22;9495;51.210;2.934;2023-04-03T05:42:47;4.20;99.90
18733;DHT22;9495;51.210;2.934;2023-04-03T05:45:15;4.10;99.90
18733;DHT22;9495;51.210;2.934;2023-04-03T05:47:43;4.10;99.90
18733;DHT22;9495;51.210;2.934;2023-04-03T05:50:12;4.20;99.90
18733;DHT22;9495;51.210;2.934;2023-04-03T05:52:44;4.20;99.90
18733;DHT22;9495;51.210;2.934;2023-04-03T05:55:13;4.20;99.90
18733;DHT22;9495;51.210;2.934;2023-04-03T05:57:42;4.20;99.90
18733;DHT22;9495;51.210;2.934;2023-04-03T06:00:13;4.30;99.90
18733;DHT22;9495;51.210;2.934;2023-04-03T06:02:42;4.30;99.90
18733;DHT22;9495;51.210;2.934;2023-04-03T06:05:11;4.30;99.90
18733;DHT22;9495;51.210;2.934;2023-04-03T06:07:41;4.40;99.90
18733;DHT22;9495;51.210;2.934;2023-04-03T06:10:11;4.40;99.90
18733;DHT22;9495;51.210;2.934;2023-04-03T06:12:40;4.50;99.90
18733;DHT22;9495;51.210;2.934;2023-04-03T06:15:09;4.40;99.90
18733;DHT22;9495;51.210;2.934;2023-04-03T06:17:38;4.50;99.90
18733;DHT22;9495;51.210;2.934;2023-04-03T06:20:08;4.60;99.90
18733;DHT22;9495;51.210;2.934;2023-04-03T06:22:37;4.60;99.90
18733;DHT22;9495;51.210;2.934;2023-04-03T06:25:07;4.70;99.90
18733;DHT22;9495;51.210;2.934;2023-04-03T06:27:36;4.70;99.90
18733;DHT22;9495;51.210;2.934;2023-04-03T06:30:06;4.70;99.90
18733;DHT22;9495;51.210;2.934;2023-04-03T06:32:35;4.80;99.90
18733;DHT22;9495;51.210;2.934;2023-04-03T06:35:04;4.80;99.90
18733;DHT22;9495;51.210;2.934;2023-04-03T06:37:33;4.80;99.90
18733;DHT22;9495;51.210;2.934;2023-04-03T06:40:02;4.90;99.90
18733;DHT22;9495;51.210;2.934;2023-04-03T06:42:32;4.90;99.90
18733;DHT22;9495;51.210;2.934;2023-04-03T06:45:01;5.00;99.90
18733;DHT22;9495;51.210;2.934;2023-04-03T06:47:30;5.00;99.90
18733;DHT22;9495;51.210;2.934;2023-04-03T06:49:58;5.10;99.90
18733;DHT22;9495;51.210;2.934;2023-04-03T06:52:27;5.10;99.90
18733;DHT22;9495;51.210;2.934;2023-04-03T06:54:55;5.20;99.90
18733;DHT22;9495;51.210;2.934;2023-04-03T06:57:24;5.20;99.90
18733;DHT22;9495;51.210;2.934;2023-04-03T06:59:54;5.40;99.90
18733;DHT22;9495;51.210;2.934;2023-04-03T07:02:23;5.50;99.90
18733;DHT22;9495;51.210;2.934;2023-04-03T07:04:52;5.50;99.90
18733;DHT22;9495;51.210;2.934;2023-04-03T07:07:20;5.60;99.90
18733;DHT22;9495;51.210;2.934;2023-04-03T07:09:49;5.70;99.90
18733;DHT22;9495;51.210;2.934;2023-04-03T07:12:18;5.80;99.90
18733;DHT22;9495;51.210;2.934;2023-04-03T07:14:47;5.90;99.90
18733;DHT22;9495;51.210;2.934;2023-04-03T07:17:17;5.90;99.90
18733;DHT22;9495;51.210;2.934;2023-04-03T07:19:45;6.00;99.90
18733;DHT22;9495;51.210;2.934;2023-04-03T07:22:14;6.00;99.90
18733;DHT22;9495;51.210;2.934;2023-04-03T07:24:43;6.00;99.90
18733;DHT22;9495;51.210;2.934;2023-04-03T07:27:11;6.10;99.90
18733;DHT22;9495;51.210;2.934;2023-04-03T07:29:40;6.20;99.90
18733;DHT22;9495;51.210;2.934;2023-04-03T07:32:09;6.10;99.90
18733;DHT22;9495;51.210;2.934;2023-04-03T07:34:40;6.20;99.90
18733;DHT22;9495;51.210;2.934;2023-04-03T07:37:08;6.30;99.90
18733;DHT22;9495;51.210;2.934;2023-04-03T07:39:37;6.40;99.90
18733;DHT22;9495;51.210;2.934;2023-04-03T07:42:06;6.40;99.90
18733;DHT22;9495;51.210;2.934;2023-04-03T07:44:35;6.50;99.90
18733;DHT22;9495;51.210;2.934;2023-04-03T07:47:03;6.50;99.90
18733;DHT22;9495;51.210;2.934;2023-04-03T07:49:32;6.60;99.90
18733;DHT22;9495;51.210;2.934;2023-04-03T07:52:06;6.50;99.90
18733;DHT22;9495;51.210;2.934;2023-04-03T07:54:36;6.50;99.90
18733;DHT22;9495;51.210;2.934;2023-04-03T07:57:04;6.60;99.90
18733;DHT22;9495;51.210;2.934;2023-04-03T07:59:34;6.60;99.90
18733;DHT22;9495;51.210;2.934;2023-04-03T08:02:02;6.70;99.90
18733;DHT22;9495;51.210;2.934;2023-04-03T08:04:32;6.70;99.90
18733;DHT22;9495;51.210;2.934;2023-04-03T08:07:01;6.80;99.90
18733;DHT22;9495;51.210;2.934;2023-04-03T08:09:31;6.80;99.90
18733;DHT22;9495;51.210;2.934;2023-04-03T08:11:59;6.90;99.90
18733;DHT22;9495;51.210;2.934;2023-04-03T08:14:30;6.90;99.90
18733;DHT22;9495;51.210;2.934;2023-04-03T08:17:01;7.00;99.90
18733;DHT22;9495;51.210;2.934;2023-04-03T08:19:32;7.10;99.90
18733;DHT22;9495;51.210;2.934;2023-04-03T08:22:00;7.10;99.90
18733;DHT22;9495;51.210;2.934;2023-04-03T08:24:31;7.20;99.90
18733;DHT22;9495;51.210;2.934;2023-04-03T08:27:00;7.20;99.90
18733;DHT22;9495;51.210;2.934;2023-04-03T08:29:28;7.20;99.90
18733;DHT22;9495;51.210;2.934;2023-04-03T08:31:59;7.30;99.90
18733;DHT22;9495;51.210;2.934;2023-04-03T08:34:28;7.40;99.90
18733;DHT22;9495;51.210;2.934;2023-04-03T08:36:56;7.50;99.90
18733;DHT22;9495;51.210;2.934;2023-04-03T08:39:25;7.60;99.90
18733;DHT22;9495;51.210;2.934;2023-04-03T08:41:55;7.60;99.90
18733;DHT22;9495;51.210;2.934;2023-04-03T08:44:31;7.60;99.90
18733;DHT22;9495;51.210;2.934;2023-04-03T08:47:11;7.60;99.90
18733;DHT22;9495;51.210;2.934;2023-04-03T08:49:44;7.80;99.90
18733;DHT22;9495;51.210;2.934;2023-04-03T08:52:18;7.80;99.90
18733;DHT22;9495;51.210;2.934;2023-04-03T08:54:52;7.80;99.90
18733;DHT22;9495;51.210;2.934;2023-04-03T08:57:28;8.00;99.90
18733;DHT22;9495;51.210;2.934;2023-04-03T08:59:59;8.00;99.90
18733;DHT22;9495;51.210;2.934;2023-04-03T09:02:32;8.10;99.90
18733;DHT22;9495;51.210;2.934;2023-04-03T09:05:05;8.10;99.90
18733;DHT22;9495;51.210;2.934;2023-04-03T09:07:42;8.10;99.90
18733;DHT22;9495;51.210;2.934;2023-04-03T09:10:14;8.20;99.90
18733;DHT22;9495;51.210;2.934;2023-04-03T09:12:46;8.20;99.90
18733;DHT22;9495;51.210;2.934;2023-04-03T09:15:20;8.30;99.90
18733;DHT22;9495;51.210;2.934;2023-04-03T09:18:06;8.40;99.90
18733;DHT22;9495;51.210;2.934;2023-04-03T09:20:45;8.50;99.90
18733;DHT22;9495;51.210;2.934;2023-04-03T09:23:19;8.50;99.90
18733;DHT22;9495;51.210;2.934;2023-04-03T09:25:51;8.50;99.90
18733;DHT22;9495;51.210;2.934;2023-04-03T09:28:22;8.60;99.90
18733;DHT22;9495;51.210;2.934;2023-04-03T09:30:53;8.60;99.90
18733;DHT22;9495;51.210;2.934;2023-04-03T09:33:22;8.60;99.90
18733;DHT22;9495;51.210;2.934;2023-04-03T09:35:50;8.60;99.90
18733;DHT22;9495;51.210;2.934;2023-04-03T09:38:20;8.70;99.90
18733;DHT22;9495;51.210;2.934;2023-04-03T09:40:51;8.80;99.90
18733;DHT22;9495;51.210;2.934;2023-04-03T09:43:32;8.80;99.90
18733;DHT22;9495;51.210;2.934;2023-04-03T09:46:20;8.80;99.90
18733;DHT22;9495;51.210;2.934;2023-04-03T09:48:52;8.90;99.90
18733;DHT22;9495;51.210;2.934;2023-04-03T09:51:34;9.00;99.90
18733;DHT22;9495;51.210;2.934;2023-04-03T09:54:25;9.10;99.90
18733;DHT22;9495;51.210;2.934;2023-04-03T09:56:54;9.00;99.90
18733;DHT22;9495;51.210;2.934;2023-04-03T09:59:26;9.10;99.90
18733;DHT22;9495;51.210;2.934;2023-04-03T10:02:00;9.10;99.90
18733;DHT22;9495;51.210;2.934;2023-04-03T10:04:38;9.20;99.90
18733;DHT22;9495;51.210;2.934;2023-04-03T10:07:28;9.30;99.90
18733;DHT22;9495;51.210;2.934;2023-04-03T10:09:57;9.30;99.90
18733;DHT22;9495;51.210;2.934;2023-04-03T10:12:26;9.30;99.90
18733;DHT22;9495;51.210;2.934;2023-04-03T10:14:57;9.20;99.90
18733;DHT22;9495;51.210;2.934;2023-04-03T10:17:33;9.40;99.90
18733;DHT22;9495;51.210;2.934;2023-04-03T10:20:16;9.40;99.90
18733;DHT22;9495;51.210;2.934;2023-04-03T10:23:00;9.40;99.90
18733;DHT22;9495;51.210;2.934;2023-04-03T10:25:35;9.40;99.90
18733;DHT22;9495;51.210;2.934;2023-04-03T10:28:08;9.40;99.90
18733;DHT22;9495;51.210;2.934;2023-04-03T10:30:47;9.50;99.90
18733;DHT22;9495;51.210;2.934;2023-04-03T10:33:34;9.40;99.90
18733;DHT22;9495;51.210;2.934;2023-04-03T10:36:12;9.60;99.90
18733;DHT22;9495;51.210;2.934;2023-04-03T10:38:51;9.60;99.90
18733;DHT22;9495;51.210;2.934;2023-04-03T10:41:31;9.60;99.90
18733;DHT22;9495;51.210;2.934;2023-04-03T10:44:10;9.70;99.90
18733;DHT22;9495;51.210;2.934;2023-04-03T10:46:43;9.60;99.90
18733;DHT22;9495;51.210;2.934;2023-04-03T10:49:22;9.60;99.90
18733;DHT22;9495;51.210;2.934;2023-04-03T10:51:59;9.70;99.90
18733;DHT22;9495;51.210;2.934;2023-04-03T10:54:35;9.70;99.90
18733;DHT22;9495;51.210;2.934;2023-04-03T10:57:06;9.70;99.90
18733;DHT22;9495;51.210;2.934;2023-04-03T10:59:43;9.80;99.90
18733;DHT22;9495;51.210;2.934;2023-04-03T11:02:19;9.80;99.90
18733;DHT22;9495;51.210;2.934;2023-04-03T11:04:55;9.90;99.90
18733;DHT22;9495;51.210;2.934;2023-04-03T11:07:26;9.80;99.90
18733;DHT22;9495;51.210;2.934;2023-04-03T11:10:02;9.80;99.90
18733;DHT22;9495;51.210;2.934;2023-04-03T11:12:36;9.80;99.90
18733;DHT22;9495;51.210;2.934;2023-04-03T11:15:11;10.00;99.90
18733;DHT22;9495;51.210;2.934;2023-04-03T11:17:46;9.90;99.90
18733;DHT22;9495;51.210;2.934;2023-04-03T11:20:19;9.90;99.90
18733;DHT22;9495;51.210;2.934;2023-04-03T11:22:51;9.90;99.90
18733;DHT22;9495;51.210;2.934;2023-04-03T11:25:23;10.10;99.90
18733;DHT22;9495;51.210;2.934;2023-04-03T11:27:55;10.10;99.90
18733;DHT22;9495;51.210;2.934;2023-04-03T11:30:28;10.10;99.90
18733;DHT22;9495;51.210;2.934;2023-04-03T11:33:13;10.10;99.90
18733;DHT22;9495;51.210;2.934;2023-04-03T11:35:48;10.20;99.90
18733;DHT22;9495;51.210;2.934;2023-04-03T11:38:21;10.10;99.90
18733;DHT22;9495;51.210;2.934;2023-04-03T11:40:51;10.10;99.90
18733;DHT22;9495;51.210;2.934;2023-04-03T11:43:23;10.10;99.90
18733;DHT22;9495;51.210;2.934;2023-04-03T11:45:56;10.10;99.90
18733;DHT22;9495;51.210;2.934;2023-04-03T11:48:47;10.10;99.90
18733;DHT22;9495;51.210;2.934;2023-04-03T11:51:38;10.30;99.90
18733;DHT22;9495;51.210;2.934;2023-04-03T11:57:45;10.30;99.90
18733;DHT22;9495;51.210;2.934;2023-04-03T12:07:00;10.60;99.90
18733;DHT22;9495;51.210;2.934;2023-04-03T12:09:37;10.70;99.90
18733;DHT22;9495;51.210;2.934;2023-04-03T12:12:37;10.70;99.90
18733;DHT22;9495;51.210;2.934;2023-04-03T12:21:20;10.80;99.90
18733;DHT22;9495;51.210;2.934;2023-04-03T12:23:59;10.80;99.90
18733;DHT22;9495;51.210;2.934;2023-04-03T12:26:32;10.70;99.90
18733;DHT22;9495;51.210;2.934;2023-04-03T12:29:17;10.80;99.90
18733;DHT22;9495;51.210;2.934;2023-04-03T12:31:55;10.90;99.90
18733;DHT22;9495;51.210;2.934;2023-04-03T12:34:43;10.80;99.90
18733;DHT22;9495;51.210;2.934;2023-04-03T12:37:27;10.80;99.90
18733;DHT22;9495;51.210;2.934;2023-04-03T12:40:09;10.90;99.90
18733;DHT22;9495;51.210;2.934;2023-04-03T12:42:57;11.00;99.90
18733;DHT22;9495;51.210;2.934;2023-04-03T12:45:41;10.80;99.90
18733;DHT22;9495;51.210;2.934;2023-04-03T12:48:14;11.00;99.90
18733;DHT22;9495;51.210;2.934;2023-04-03T12:50:45;11.20;99.90
18733;DHT22;9495;51.210;2.934;2023-04-03T12:53:18;11.10;99.90
18733;DHT22;9495;51.210;2.934;2023-04-03T12:55:54;11.10;99.90
18733;DHT22;9495;51.210;2.934;2023-04-03T12:58:24;11.10;99.90
18733;DHT22;9495;51.210;2.934;2023-04-03T13:01:00;11.00;99.90
18733;DHT22;9495;51.210;2.934;2023-04-03T13:03:30;11.00;99.90
18733;DHT22;9495;51.210;2.934;2023-04-03T13:06:00;11.30;99.90
18733;DHT22;9495;51.210;2.934;2023-04-03T13:08:30;11.20;99.90
18733;DHT22;9495;51.210;2.934;2023-04-03T13:11:02;11.30;99.90
18733;DHT22;9495;51.210;2.934;2023-04-03T13:13:32;11.20;99.90
18733;DHT22;9495;51.210;2.934;2023-04-03T13:16:08;11.20;99.90
18733;DHT22;9495;51.210;2.934;2023-04-03T13:18:38;11.10;99.90
18733;DHT22;9495;51.210;2.934;2023-04-03T13:21:10;11.20;99.90
18733;DHT22;9495;51.210;2.934;2023-04-03T13:23:44;11.10;99.90
18733;DHT22;9495;51.210;2.934;2023-04-03T13:26:16;11.20;99.90
18733;DHT22;9495;51.210;2.934;2023-04-03T13:28:46;11.20;99.90
18733;DHT22;9495;51.210;2.934;2023-04-03T13:31:20;11.30;99.90
18733;DHT22;9495;51.210;2.934;2023-04-03T13:33:56;11.30;99.90
18733;DHT22;9495;51.210;2.934;2023-04-03T13:36:29;11.20;99.90
18733;DHT22;9495;51.210;2.934;2023-04-03T13:39:02;11.40;99.90
18733;DHT22;9495;51.210;2.934;2023-04-03T13:41:34;11.30;99.90
18733;DHT22;9495;51.210;2.934;2023-04-03T13:44:26;11.10;99.90
18733;DHT22;9495;51.210;2.934;2023-04-03T13:46:56;11.30;99.90
18733;DHT22;9495;51.210;2.934;2023-04-03T13:49:31;11.30;99.90
18733;DHT22;9495;51.210;2.934;2023-04-03T13:52:02;11.20;99.90
18733;DHT22;9495;51.210;2.934;2023-04-03T13:54:35;11.30;99.90
18733;DHT22;9495;51.210;2.934;2023-04-03T13:57:13;11.30;99.90
18733;DHT22;9495;51.210;2.934;2023-04-03T13:59:43;11.40;99.90
18733;DHT22;9495;51.210;2.934;2023-04-03T14:02:17;11.40;99.90
18733;DHT22;9495;51.210;2.934;2023-04-03T14:04:58;11.30;99.90
18733;DHT22;9495;51.210;2.934;2023-04-03T14:07:29;11.30;99.90
18733;DHT22;9495;51.210;2.934;2023-04-03T14:09:58;11.30;99.90
18733;DHT22;9495;51.210;2.934;2023-04-03T14:12:32;11.40;99.90
18733;DHT22;9495;51.210;2.934;2023-04-03T14:15:02;11.30;99.90
18733;DHT22;9495;51.210;2.934;2023-04-03T14:17:31;11.50;99.90
18733;DHT22;9495;51.210;2.934;2023-04-03T14:19:59;11.40;99.90
18733;DHT22;9495;51.210;2.934;2023-04-03T14:22:31;11.40;99.90
18733;DHT22;9495;51.210;2.934;2023-04-03T14:24:59;11.30;99.90
18733;DHT22;9495;51.210;2.934;2023-04-03T14:27:34;11.40;99.90
18733;DHT22;9495;51.210;2.934;2023-04-03T14:30:04;11.40;99.90
18733;DHT22;9495;51.210;2.934;2023-04-03T14:32:33;11.40;99.90
18733;DHT22;9495;51.210;2.934;2023-04-03T14:35:02;11.40;99.90
18733;DHT22;9495;51.210;2.934;2023-04-03T14:37:31;11.40;99.90
18733;DHT22;9495;51.210;2.934;2023-04-03T14:40:00;11.50;99.90
18733;DHT22;9495;51.210;2.934;2023-04-03T14:42:33;11.50;99.90
18733;DHT22;9495;51.210;2.934;2023-04-03T14:45:04;11.50;99.90
18733;DHT22;9495;51.210;2.934;2023-04-03T14:47:39;11.50;99.90
18733;DHT22;9495;51.210;2.934;2023-04-03T14:50:13;11.40;99.90
18733;DHT22;9495;51.210;2.934;2023-04-03T14:52:42;11.40;99.90
18733;DHT22;9495;51.210;2.934;2023-04-03T14:55:12;11.50;99.90
18733;DHT22;9495;51.210;2.934;2023-04-03T14:57:43;11.60;99.90
18733;DHT22;9495;51.210;2.934;2023-04-03T15:00:14;11.60;99.90
18733;DHT22;9495;51.210;2.934;2023-04-03T15:02:43;11.50;99.90
18733;DHT22;9495;51.210;2.934;2023-04-03T15:05:13;11.60;99.90
18733;DHT22;9495;51.210;2.934;2023-04-03T15:07:46;11.50;99.90
18733;DHT22;9495;51.210;2.934;2023-04-03T15:10:18;11.50;99.90
18733;DHT22;9495;51.210;2.934;2023-04-03T15:12:48;11.40;99.90
18733;DHT22;9495;51.210;2.934;2023-04-03T15:15:18;11.50;99.90
18733;DHT22;9495;51.210;2.934;2023-04-03T15:17:50;11.50;99.90
18733;DHT22;9495;51.210;2.934;2023-04-03T15:20:22;11.50;99.90
18733;DHT22;9495;51.210;2.934;2023-04-03T15:22:51;11.50;99.90
18733;DHT22;9495;51.210;2.934;2023-04-03T15:25:20;11.50;99.90
18733;DHT22;9495;51.210;2.934;2023-04-03T15:27:50;11.40;99.90
18733;DHT22;9495;51.210;2.934;2023-04-03T15:30:19;11.40;99.90
18733;DHT22;9495;51.210;2.934;2023-04-03T15:32:49;11.40;99.90
18733;DHT22;9495;51.210;2.934;2023-04-03T15:35:17;11.30;99.90
18733;DHT22;9495;51.210;2.934;2023-04-03T15:37:46;11.30;99.90
18733;DHT22;9495;51.210;2.934;2023-04-03T15:40:15;11.40;99.90
18733;DHT22;9495;51.210;2.934;2023-04-03T15:42:44;11.40;99.90
18733;DHT22;9495;51.210;2.934;2023-04-03T15:45:14;11.50;99.90
18733;DHT22;9495;51.210;2.934;2023-04-03T15:47:42;11.40;99.90
18733;DHT22;9495;51.210;2.934;2023-04-03T15:50:11;11.40;99.90
18733;DHT22;9495;51.210;2.934;2023-04-03T15:52:39;11.40;99.90
18733;DHT22;9495;51.210;2.934;2023-04-03T15:55:08;11.50;99.90
18733;DHT22;9495;51.210;2.934;2023-04-03T15:57:37;11.40;99.90
18733;DHT22;9495;51.210;2.934;2023-04-03T16:00:07;11.40;99.90
18733;DHT22;9495;51.210;2.934;2023-04-03T16:02:37;11.30;99.90
18733;DHT22;9495;51.210;2.934;2023-04-03T16:05:06;11.30;99.90
18733;DHT22;9495;51.210;2.934;2023-04-03T16:07:37;11.30;99.90
18733;DHT22;9495;51.210;2.934;2023-04-03T16:10:06;11.40;99.90
18733;DHT22;9495;51.210;2.934;2023-04-03T16:12:35;11.30;99.90
18733;DHT22;9495;51.210;2.934;2023-04-03T16:15:05;11.20;99.90
18733;DHT22;9495;51.210;2.934;2023-04-03T16:17:34;11.20;99.90
18733;DHT22;9495;51.210;2.934;2023-04-03T16:20:07;11.20;99.90
18733;DHT22;9495;51.210;2.934;2023-04-03T16:22:36;11.30;99.90
18733;DHT22;9495;51.210;2.934;2023-04-03T16:25:06;11.20;99.90
18733;DHT22;9495;51.210;2.934;2023-04-03T16:27:35;11.40;99.90
18733;DHT22;9495;51.210;2.934;2023-04-03T16:30:04;11.30;99.90
18733;DHT22;9495;51.210;2.934;2023-04-03T16:32:33;11.30;99.90
18733;DHT22;9495;51.210;2.934;2023-04-03T16:35:02;11.30;99.90
18733;DHT22;9495;51.210;2.934;2023-04-03T16:37:32;11.30;99.90
18733;DHT22;9495;51.210;2.934;2023-04-03T16:40:00;11.40;99.90
18733;DHT22;9495;51.210;2.934;2023-04-03T16:42:29;11.40;99.90